Time,TemperatureF,DewpointF,PressureIn,WindDirection,WindDirectionDegrees,WindSpeedMPH,WindSpeedGustMPH,Humidity,HourlyPrecipIn,Conditions,Clouds,dailyrainin,SoftwareType,DateUTC
2013-03-26 00:09:00,33.6,33.0,29.71,WNW,299,1.0,4.0,96,0.00,,,0.00,weatherlink.com 1.10,2013-03-26 04:09:00,
2013-03-26 00:24:00,33.6,33.0,29.72,NW,304,3.0,4.0,96,0.00,,,0.00,weatherlink.com 1.10,2013-03-26 04:24:00,
2013-03-26 00:39:00,33.9,33.0,29.72,NW,314,4.0,6.0,96,0.00,,,0.00,weatherlink.com 1.10,2013-03-26 04:39:00,
2013-03-26 00:54:00,34.0,33.0,29.73,NW,304,6.0,7.0,96,0.00,,,0.00,weatherlink.com 1.10,2013-03-26 04:54:00,
2013-03-26 01:09:00,34.0,33.0,29.73,NW,307,3.0,6.0,96,0.00,,,0.00,weatherlink.com 1.10,2013-03-26 05:09:00,
2013-03-26 01:24:00,33.8,33.0,29.74,NW,318,2.0,6.0,96,0.00,,,0.00,weatherlink.com 1.10,2013-03-26 05:24:00,
2013-03-26 01:39:00,33.7,33.0,29.74,WNW,300,2.0,6.0,96,0.00,,,0.00,weatherlink.com 1.10,2013-03-26 05:39:00,
2013-03-26 01:54:00,33.5,33.0,29.74,NW,310,3.0,6.0,96,0.00,,,0.00,weatherlink.com 1.10,2013-03-26 05:54:00,
2013-03-26 02:09:00,33.5,33.0,29.75,WNW,301,6.0,7.0,96,0.00,,,0.00,weatherlink.com 1.10,2013-03-26 06:09:00,
2013-03-26 02:24:00,33.9,33.0,29.75,NW,310,7.0,9.0,96,0.00,,,0.00,weatherlink.com 1.10,2013-03-26 06:24:00,
2013-03-26 02:39:00,34.1,33.0,29.75,WNW,300,6.0,10.0,95,0.00,,,0.00,weatherlink.com 1.10,2013-03-26 06:39:00,
2013-03-26 02:54:00,34.1,33.0,29.76,NW,314,3.0,9.0,95,0.00,,,0.00,weatherlink.com 1.10,2013-03-26 06:54:00,
2013-03-26 03:09:00,34.2,33.0,29.76,West,279,5.0,7.0,95,0.00,,,0.00,weatherlink.com 1.10,2013-03-26 07:09:00,
2013-03-26 03:24:00,34.3,33.0,29.76,WNW,290,3.0,7.0,95,0.00,,,0.00,weatherlink.com 1.10,2013-03-26 07:24:00,
2013-03-26 03:39:00,34.4,33.0,29.76,WNW,293,8.0,8.0,95,0.00,,,0.00,weatherlink.com 1.10,2013-03-26 07:39:00,
2013-03-26 03:54:00,34.5,33.0,29.76,NW,305,5.0,7.0,95,0.00,,,0.00,weatherlink.com 1.10,2013-03-26 07:54:00,
2013-03-26 04:09:00,34.5,33.0,29.76,WNW,294,4.0,6.0,95,0.00,,,0.00,weatherlink.com 1.10,2013-03-26 08:09:00,
2013-03-26 04:24:00,34.4,33.0,29.76,WNW,290,5.0,6.0,94,0.00,,,0.00,weatherlink.com 1.10,2013-03-26 08:24:00,
2013-03-26 04:39:00,34.2,33.0,29.77,WNW,300,2.0,7.0,95,0.00,,,0.00,weatherlink.com 1.10,2013-03-26 08:39:00,
2013-03-26 04:54:00,34.1,33.0,29.77,NNW,343,2.0,6.0,95,0.00,,,0.00,weatherlink.com 1.10,2013-03-26 08:54:00,
2013-03-26 05:10:00,34.1,33.0,29.77,NW,314,2.0,6.0,95,0.00,,,0.00,weatherlink.com 1.10,2013-03-26 09:10:00,
2013-03-26 05:25:00,34.1,33.0,29.78,NW,308,3.0,6.0,94,0.00,,,0.00,weatherlink.com 1.10,2013-03-26 09:25:00,
2013-03-26 05:40:00,34.0,33.0,29.78,NNW,347,5.0,6.0,94,0.00,,,0.00,weatherlink.com 1.10,2013-03-26 09:40:00,
2013-03-26 05:55:00,33.7,32.0,29.79,WNW,297,3.0,6.0,94,0.00,,,0.00,weatherlink.com 1.10,2013-03-26 09:55:00,
2013-03-26 06:10:00,33.7,32.0,29.79,NW,307,4.0,6.0,94,0.00,,,0.00,weatherlink.com 1.10,2013-03-26 10:10:00,
2013-03-26 06:25:00,33.6,32.0,29.80,WNW,301,2.0,5.0,94,0.00,,,0.00,weatherlink.com 1.10,2013-03-26 10:25:00,
2013-03-26 06:40:00,33.3,32.0,29.80,NW,309,4.0,6.0,94,0.00,,,0.00,weatherlink.com 1.10,2013-03-26 10:40:00,
2013-03-26 06:55:00,33.2,32.0,29.81,WNW,285,3.0,5.0,94,0.00,,,0.00,weatherlink.com 1.10,2013-03-26 10:55:00,
2013-03-26 07:10:00,33.1,32.0,29.82,WNW,290,4.0,7.0,94,0.00,,,0.00,weatherlink.com 1.10,2013-03-26 11:10:00,
2013-03-26 07:25:00,33.5,32.0,29.83,WNW,297,5.0,7.0,94,0.00,,,0.00,weatherlink.com 1.10,2013-03-26 11:25:00,
2013-03-26 07:40:00,33.9,32.0,29.83,WNW,301,3.0,7.0,93,0.00,,,0.00,weatherlink.com 1.10,2013-03-26 11:40:00,
2013-03-26 07:55:00,34.4,33.0,29.84,NW,311,4.0,8.0,93,0.00,,,0.00,weatherlink.com 1.10,2013-03-26 11:55:00,
2013-03-26 08:10:00,35.0,33.0,29.84,NW,311,4.0,10.0,92,0.00,,,0.00,weatherlink.com 1.10,2013-03-26 12:10:00,
2013-03-26 08:25:00,35.7,33.0,29.84,NNW,332,6.0,12.0,91,0.00,,,0.00,weatherlink.com 1.10,2013-03-26 12:25:00,
2013-03-26 08:40:00,36.2,33.0,29.85,NNW,327,7.0,13.0,89,0.00,,,0.00,weatherlink.com 1.10,2013-03-26 12:40:00,
2013-03-26 08:55:00,36.8,34.0,29.85,North,355,7.0,11.0,88,0.00,,,0.00,weatherlink.com 1.10,2013-03-26 12:55:00,
2013-03-26 09:11:00,37.2,33.0,29.85,NNW,342,7.0,11.0,86,0.00,,,0.00,weatherlink.com 1.10,2013-03-26 13:11:00,
2013-03-26 09:25:00,37.7,34.0,29.85,North,11,6.0,12.0,85,0.00,,,0.00,weatherlink.com 1.10,2013-03-26 13:25:00,
2013-03-26 09:40:00,38.4,34.0,29.85,NW,307,9.0,13.0,84,0.00,,,0.00,weatherlink.com 1.10,2013-03-26 13:40:00,
2013-03-26 09:55:00,39.1,34.0,29.86,NW,316,6.0,14.0,82,0.00,,,0.00,weatherlink.com 1.10,2013-03-26 13:55:00,
2013-03-26 10:10:00,39.7,34.0,29.86,NNE,18,8.0,15.0,80,0.00,,,0.00,weatherlink.com 1.10,2013-03-26 14:10:00,
2013-03-26 10:25:00,40.1,34.0,29.86,NW,311,10.0,15.0,79,0.00,,,0.00,weatherlink.com 1.10,2013-03-26 14:25:00,
2013-03-26 10:40:00,40.6,34.0,29.86,NW,319,10.0,12.0,77,0.00,,,0.00,weatherlink.com 1.10,2013-03-26 14:40:00,
2013-03-26 10:55:00,40.9,34.0,29.87,NNW,336,8.0,14.0,75,0.00,,,0.00,weatherlink.com 1.10,2013-03-26 14:55:00,
2013-03-26 11:11:00,41.6,33.0,29.87,NW,322,8.0,16.0,72,0.00,,,0.00,weatherlink.com 1.10,2013-03-26 15:11:00,
2013-03-26 11:26:00,42.0,33.0,29.87,NNW,330,8.0,15.0,71,0.00,,,0.00,weatherlink.com 1.10,2013-03-26 15:26:00,
2013-03-26 12:26:00,44.6,33.0,29.87,North,11,11.0,14.0,64,0.00,,,0.00,weatherlink.com 1.10,2013-03-26 16:26:00,
2013-03-26 12:41:00,44.9,32.0,29.87,NW,321,11.0,17.0,62,0.00,,,0.00,weatherlink.com 1.10,2013-03-26 16:41:00,
2013-03-26 12:56:00,45.4,32.0,29.87,North,8,12.0,17.0,59,0.00,,,0.00,weatherlink.com 1.10,2013-03-26 16:56:00,
2013-03-26 13:11:00,45.6,31.0,29.87,NNE,18,11.0,16.0,57,0.00,,,0.00,weatherlink.com 1.10,2013-03-26 17:11:00,
2013-03-26 13:26:00,46.2,31.0,29.86,NNE,15,11.0,16.0,55,0.00,,,0.00,weatherlink.com 1.10,2013-03-26 17:26:00,
2013-03-26 13:41:00,46.6,31.0,29.86,NW,312,12.0,13.0,55,0.00,,,0.00,weatherlink.com 1.10,2013-03-26 17:41:00,
2013-03-26 13:56:00,46.6,30.0,29.87,NW,308,7.0,15.0,53,0.00,,,0.00,weatherlink.com 1.10,2013-03-26 17:56:00,
2013-03-26 14:11:00,46.4,30.0,29.87,NW,312,8.0,14.0,53,0.00,,,0.00,weatherlink.com 1.10,2013-03-26 18:11:00,
2013-03-26 14:26:00,46.3,31.0,29.87,NW,326,7.0,14.0,55,0.00,,,0.00,weatherlink.com 1.10,2013-03-26 18:26:00,
2013-03-26 14:41:00,46.9,31.0,29.87,North,355,6.0,10.0,54,0.00,,,0.00,weatherlink.com 1.10,2013-03-26 18:41:00,
2013-03-26 14:56:00,46.6,28.0,29.87,NW,305,9.0,12.0,49,0.00,,,0.00,weatherlink.com 1.10,2013-03-26 18:56:00,
2013-03-26 15:11:00,46.8,29.0,29.87,NW,312,5.0,11.0,51,0.00,,,0.00,weatherlink.com 1.10,2013-03-26 19:11:00,
2013-03-26 15:26:00,46.9,28.0,29.87,NW,325,8.0,12.0,48,0.00,,,0.00,weatherlink.com 1.10,2013-03-26 19:26:00,
2013-03-26 15:41:00,46.9,28.0,29.87,NNE,15,10.0,11.0,49,0.00,,,0.00,weatherlink.com 1.10,2013-03-26 19:41:00,
2013-03-26 15:56:00,46.9,28.0,29.87,NW,313,7.0,12.0,48,0.00,,,0.00,weatherlink.com 1.10,2013-03-26 19:56:00,
2013-03-26 16:11:00,47.1,28.0,29.87,NW,312,4.0,11.0,47,0.00,,,0.00,weatherlink.com 1.10,2013-03-26 20:11:00,
2013-03-26 16:26:00,47.4,28.0,29.87,West,271,3.0,9.0,47,0.00,,,0.00,weatherlink.com 1.10,2013-03-26 20:26:00,
2013-03-26 16:41:00,48.4,29.0,29.86,West,276,6.0,8.0,48,0.00,,,0.00,weatherlink.com 1.10,2013-03-26 20:41:00,
2013-03-26 16:57:00,47.5,28.0,29.87,NW,309,8.0,12.0,48,0.00,,,0.00,weatherlink.com 1.10,2013-03-26 20:57:00,
2013-03-26 17:11:00,47.5,30.0,29.88,NW,312,2.0,11.0,51,0.00,,,0.00,weatherlink.com 1.10,2013-03-26 21:11:00,
2013-03-26 17:26:00,47.6,28.0,29.88,NW,312,6.0,9.0,47,0.00,,,0.00,weatherlink.com 1.10,2013-03-26 21:26:00,
2013-03-26 17:57:00,47.7,29.0,29.89,NW,309,4.0,6.0,49,0.00,,,0.00,weatherlink.com 1.10,2013-03-26 21:57:00,
2013-03-26 18:12:00,49.1,28.0,29.89,WNW,298,4.0,9.0,45,0.00,,,0.00,weatherlink.com 1.10,2013-03-26 22:12:00,
2013-03-26 18:27:00,49.7,28.0,29.89,NW,311,3.0,9.0,43,0.00,,,0.00,weatherlink.com 1.10,2013-03-26 22:27:00,
2013-03-26 18:42:00,49.7,28.0,29.90,NW,315,4.0,7.0,43,0.00,,,0.00,weatherlink.com 1.10,2013-03-26 22:42:00,
2013-03-26 18:57:00,47.9,27.0,29.90,WNW,291,1.0,5.0,45,0.00,,,0.00,weatherlink.com 1.10,2013-03-26 22:57:00,
2013-03-26 19:12:00,47.3,28.0,29.91,West,278,0.0,3.0,47,0.00,,,0.00,weatherlink.com 1.10,2013-03-26 23:12:00,
2013-03-26 19:27:00,46.4,27.0,29.92,West,278,0.0,1.0,48,0.00,,,0.00,weatherlink.com 1.10,2013-03-26 23:27:00,
2013-03-26 19:42:00,45.9,29.0,29.92,NW,313,7.0,8.0,51,0.00,,,0.00,weatherlink.com 1.10,2013-03-26 23:42:00,
2013-03-26 19:57:00,46.6,30.0,29.93,NW,316,9.0,11.0,53,0.00,,,0.00,weatherlink.com 1.10,2013-03-26 23:57:00,
2013-03-26 20:12:00,46.7,30.0,29.94,NW,304,9.0,9.0,53,0.00,,,0.00,weatherlink.com 1.10,2013-03-27 00:12:00,
2013-03-26 20:27:00,46.5,30.0,29.95,NW,307,5.0,10.0,54,0.00,,,0.00,weatherlink.com 1.10,2013-03-27 00:27:00,
2013-03-26 20:42:00,46.3,31.0,29.95,NW,309,3.0,7.0,55,0.00,,,0.00,weatherlink.com 1.10,2013-03-27 00:42:00,
2013-03-26 20:57:00,46.2,31.0,29.96,NW,318,4.0,6.0,56,0.00,,,0.00,weatherlink.com 1.10,2013-03-27 00:57:00,
2013-03-26 21:12:00,46.0,30.0,29.96,NW,311,7.0,7.0,55,0.00,,,0.00,weatherlink.com 1.10,2013-03-27 01:12:00,
2013-03-26 21:27:00,45.9,31.0,29.97,NNW,329,3.0,8.0,56,0.00,,,0.00,weatherlink.com 1.10,2013-03-27 01:27:00,
2013-03-26 21:42:00,45.7,31.0,29.97,NW,309,7.0,9.0,56,0.00,,,0.00,weatherlink.com 1.10,2013-03-27 01:42:00,
2013-03-26 21:57:00,45.7,30.0,29.98,NW,311,9.0,11.0,55,0.00,,,0.00,weatherlink.com 1.10,2013-03-27 01:57:00,
2013-03-26 22:12:00,45.6,30.0,29.98,NW,309,6.0,9.0,55,0.00,,,0.00,weatherlink.com 1.10,2013-03-27 02:12:00,
2013-03-26 22:27:00,45.9,30.0,29.98,NW,311,7.0,14.0,55,0.00,,,0.00,weatherlink.com 1.10,2013-03-27 02:27:00,
2013-03-26 22:42:00,46.0,30.0,29.98,NW,313,6.0,14.0,53,0.00,,,0.00,weatherlink.com 1.10,2013-03-27 02:42:00,
2013-03-26 22:57:00,45.8,29.0,29.98,NW,315,4.0,11.0,53,0.00,,,0.00,weatherlink.com 1.10,2013-03-27 02:57:00,
2013-03-26 23:12:00,45.4,29.0,29.98,NW,305,5.0,10.0,53,0.00,,,0.00,weatherlink.com 1.10,2013-03-27 03:12:00,
2013-03-26 23:27:00,45.0,29.0,29.98,WNW,303,6.0,12.0,53,0.00,,,0.00,weatherlink.com 1.10,2013-03-27 03:27:00,
2013-03-26 23:42:00,44.7,29.0,29.99,WNW,300,3.0,9.0,54,0.00,,,0.00,weatherlink.com 1.10,2013-03-27 03:42:00,
2013-03-26 23:57:00,44.5,29.0,29.99,NW,311,5.0,13.0,54,0.00,,,0.00,weatherlink.com 1.10,2013-03-27 03:57:00,